createdAt,value
2019-04-26T00:00:56.064Z,41.20
2019-04-26T00:03:32.765Z,41.20
2019-04-26T00:06:04.660Z,41.10
2019-04-26T00:08:36.042Z,41.10
2019-04-26T00:11:13.942Z,41.30
2019-04-26T00:14:11.387Z,41.30
2019-04-26T00:16:51.492Z,41.50
2019-04-26T00:19:22.282Z,41.80
2019-04-26T00:21:53.126Z,41.90
2019-04-26T00:24:24.916Z,41.90
2019-04-26T00:26:56.134Z,42.30
2019-04-26T00:29:26.698Z,42.40
2019-04-26T00:31:57.712Z,42.50
2019-04-26T00:34:28.937Z,42.50
2019-04-26T00:36:59.508Z,43.00
2019-04-26T00:39:30.006Z,42.40
2019-04-26T00:42:00.798Z,42.40
2019-04-26T00:44:32.697Z,42.70
2019-04-26T00:47:05.761Z,42.70
2019-04-26T00:49:43.965Z,42.80
2019-04-26T00:52:12.987Z,42.90
2019-04-26T00:54:45.020Z,43.20
2019-04-26T00:57:18.245Z,43.40
2019-04-26T00:59:50.490Z,43.60
2019-04-26T01:02:27.905Z,44.20
2019-04-26T01:04:58.505Z,44.40
2019-04-26T01:07:29.440Z,44.40
2019-04-26T01:10:00.017Z,44.10
2019-04-26T01:12:30.923Z,43.90
2019-04-26T01:15:01.812Z,43.90
2019-04-26T01:17:33.895Z,44.00
2019-04-26T01:20:04.735Z,44.60
2019-04-26T01:22:39.601Z,45.50
2019-04-26T01:25:51.787Z,45.80
2019-04-26T01:28:31.325Z,46.50
2019-04-26T01:31:04.860Z,47.30
2019-04-26T01:33:38.038Z,47.60
2019-04-26T01:36:13.337Z,47.80
2019-04-26T01:38:42.441Z,48.20
2019-04-26T01:41:21.395Z,48.50
2019-04-26T01:44:01.280Z,48.10
2019-04-26T01:46:39.308Z,47.90
2019-04-26T01:49:12.040Z,48.00
2019-04-26T01:51:55.731Z,48.30
2019-04-26T01:54:29.967Z,48.30
2019-04-26T01:57:04.396Z,49.00
2019-04-26T01:59:39.682Z,49.50
2019-04-26T02:02:47.531Z,50.00
2019-04-26T02:05:26.023Z,51.00
2019-04-26T02:07:58.073Z,51.30
2019-04-26T02:10:28.966Z,51.80
2019-04-26T02:13:00.062Z,52.40
2019-04-26T02:15:33.520Z,53.00
2019-04-26T02:18:04.535Z,53.70
2019-04-26T02:21:24.499Z,54.10
2019-04-26T02:24:10.876Z,54.50
2019-04-26T02:26:44.041Z,55.30
2019-04-26T02:29:21.253Z,55.70
2019-04-26T02:31:56.292Z,56.20
2019-04-26T02:34:29.785Z,57.00
2019-04-26T02:37:03.132Z,57.50
2019-04-26T02:39:37.909Z,57.90
2019-04-26T02:42:14.244Z,58.50
2019-04-26T02:44:54.094Z,59.10
2019-04-26T02:47:43.595Z,59.40
2019-04-26T02:50:20.957Z,60.20
2019-04-26T02:53:00.705Z,61.60
2019-04-26T02:56:08.621Z,62.60
2019-04-26T02:59:02.546Z,63.30
2019-04-26T03:01:34.495Z,64.10
2019-04-26T03:04:05.362Z,65.80
2019-04-26T03:06:38.627Z,66.70
2019-04-26T03:09:22.440Z,67.40
2019-04-26T03:11:56.018Z,68.60
2019-04-26T03:14:44.508Z,69.50
2019-04-26T03:17:30.751Z,70.90
2019-04-26T03:20:05.334Z,72.30
2019-04-26T03:23:16.166Z,73.60
2019-04-26T03:26:01.864Z,74.50
2019-04-26T03:28:44.172Z,76.60
2019-04-26T03:31:28.452Z,78.30
2019-04-26T03:34:48.839Z,80.70
2019-04-26T03:37:55.638Z,82.90
2019-04-26T03:40:57.993Z,85.90
2019-04-26T03:43:49.272Z,89.00
2019-04-26T03:46:33.564Z,91.60
2019-04-26T03:49:33.893Z,93.90
2019-04-26T03:52:45.585Z,95.70
2019-04-26T03:55:59.209Z,98.30
2019-04-26T03:58:59.532Z,99.90
2019-04-26T04:01:35.348Z,99.90
2019-04-26T04:04:26.335Z,99.90
2019-04-26T04:07:04.600Z,99.90
2019-04-26T04:09:32.264Z,99.90
2019-04-26T04:12:16.693Z,99.90
2019-04-26T04:15:04.221Z,99.90
2019-04-26T04:17:50.159Z,99.90
2019-04-26T04:20:42.094Z,99.90
2019-04-26T04:23:43.080Z,99.90
2019-04-26T04:26:16.496Z,99.90
2019-04-26T04:29:21.070Z,99.90
2019-04-26T04:31:56.070Z,99.90
2019-04-26T04:34:34.162Z,99.90
2019-04-26T04:37:10.637Z,99.90
2019-04-26T04:40:21.694Z,99.90
2019-04-26T04:43:33.960Z,99.90
2019-04-26T04:47:22.974Z,99.90
2019-04-26T04:49:53.953Z,99.90
2019-04-26T04:53:03.773Z,99.90
2019-04-26T04:55:50.055Z,99.90
2019-04-26T04:58:26.582Z,99.90
2019-04-26T05:01:46.186Z,99.90
2019-04-26T05:04:37.147Z,99.90
2019-04-26T05:07:32.132Z,99.90
2019-04-26T05:10:17.944Z,99.90
2019-04-26T05:12:59.408Z,99.90
2019-04-26T05:16:04.313Z,99.90
2019-04-26T05:19:28.818Z,99.90
2019-04-26T05:22:14.741Z,99.90
2019-04-26T05:25:40.308Z,99.90
2019-04-26T05:28:23.109Z,99.90
2019-04-26T05:31:10.140Z,99.90
2019-04-26T05:34:16.848Z,99.90
2019-04-26T05:37:02.340Z,99.90
2019-04-26T05:39:51.223Z,99.90
2019-04-26T05:43:15.258Z,99.90
2019-04-26T05:46:21.265Z,99.90
2019-04-26T05:49:31.973Z,99.90
2019-04-26T05:52:39.484Z,99.90
2019-04-26T05:55:54.072Z,99.90
2019-04-26T05:58:42.545Z,99.90
2019-04-26T06:01:59.017Z,99.90
2019-04-26T06:05:12.882Z,99.90
2019-04-26T06:08:11.068Z,99.90
2019-04-26T06:10:44.625Z,99.90
2019-04-26T06:14:07.188Z,99.90
2019-04-26T06:16:53.340Z,99.90
2019-04-26T06:19:51.836Z,99.90
2019-04-26T06:22:44.912Z,99.90
2019-04-26T06:25:35.727Z,99.90
2019-04-26T06:28:41.349Z,99.90
2019-04-26T06:31:22.643Z,99.90
2019-04-26T06:34:08.648Z,99.90
2019-04-26T06:36:55.984Z,99.90
2019-04-26T06:39:38.512Z,99.90
2019-04-26T06:43:06.844Z,99.90
2019-04-26T06:47:01.929Z,99.90
2019-04-26T06:50:01.395Z,99.90
2019-04-26T06:52:35.657Z,99.90
2019-04-26T06:55:19.597Z,99.90
2019-04-26T06:58:18.605Z,99.90
2019-04-26T07:01:06.457Z,99.90
2019-04-26T07:04:20.922Z,99.90
2019-04-26T07:07:13.543Z,99.90
2019-04-26T07:10:02.168Z,99.90
2019-04-26T07:12:52.919Z,98.90
2019-04-26T07:16:00.283Z,98.20
2019-04-26T07:19:06.561Z,97.90
2019-04-26T07:22:36.755Z,97.50
2019-04-26T07:25:47.526Z,97.40
2019-04-26T07:28:56.785Z,96.50
2019-04-26T07:31:45.021Z,96.00
2019-04-26T07:34:51.556Z,93.80
2019-04-26T07:38:02.643Z,92.20
2019-04-26T07:41:31.883Z,92.90
2019-04-26T07:44:31.713Z,91.90
2019-04-26T07:47:18.461Z,91.20
2019-04-26T07:50:14.339Z,91.30
2019-04-26T07:53:53.827Z,90.90
2019-04-26T07:56:54.642Z,88.60
2019-04-26T08:00:08.712Z,90.00
2019-04-26T08:03:04.163Z,91.10
2019-04-26T08:05:44.841Z,90.20
2019-04-26T08:08:18.936Z,89.90
2019-04-26T08:11:04.529Z,90.60
2019-04-26T08:13:37.989Z,89.80
2019-04-26T08:16:39.680Z,90.70
2019-04-26T08:19:21.872Z,90.10
2019-04-26T08:22:18.283Z,87.90
2019-04-26T08:25:03.502Z,88.60
2019-04-26T08:27:37.168Z,87.30
2019-04-26T08:30:17.432Z,89.20
2019-04-26T08:32:55.059Z,87.00
2019-04-26T08:35:30.306Z,86.80
2019-04-26T08:38:08.077Z,84.10
2019-04-26T08:40:39.289Z,85.50
2019-04-26T08:43:36.386Z,87.00
2019-04-26T08:46:28.396Z,88.60
2019-04-26T08:49:09.583Z,88.10
2019-04-26T08:51:42.853Z,88.90
2019-04-26T08:54:21.816Z,88.00
2019-04-26T08:57:00.024Z,90.10
2019-04-26T08:59:34.665Z,90.70
2019-04-26T09:02:26.875Z,91.10
2019-04-26T09:05:17.009Z,91.40
2019-04-26T09:07:53.517Z,91.50
2019-04-26T09:10:24.769Z,91.80
2019-04-26T09:12:57.869Z,91.60
2019-04-26T09:16:03.505Z,92.00
2019-04-26T09:18:42.891Z,92.10
2019-04-26T09:21:08.129Z,92.00
2019-04-26T09:23:56.625Z,92.50
2019-04-26T09:26:42.469Z,92.50
2019-04-26T09:29:20.877Z,92.70
2019-04-26T09:31:54.572Z,92.80
2019-04-26T09:34:26.811Z,93.50
2019-04-26T09:36:57.826Z,93.60
2019-04-26T09:39:29.173Z,94.30
2019-04-26T09:42:09.708Z,93.60
2019-04-26T09:44:46.586Z,93.20
2019-04-26T09:47:31.044Z,93.40
2019-04-26T09:50:20.929Z,94.50
2019-04-26T09:52:52.699Z,94.00
2019-04-26T09:55:34.792Z,94.90
2019-04-26T09:57:57.030Z,95.50
2019-04-26T10:00:29.670Z,95.50
2019-04-26T10:03:05.350Z,96.30
2019-04-26T10:05:34.120Z,96.20
2019-04-26T10:08:08.258Z,96.90
2019-04-26T10:10:37.564Z,97.00
2019-04-26T10:13:42.233Z,97.10
2019-04-26T10:16:43.880Z,96.70
2019-04-26T10:19:18.606Z,97.20
2019-04-26T10:21:52.581Z,97.10
2019-04-26T10:24:23.662Z,96.80
2019-04-26T10:26:55.533Z,97.10
2019-04-26T10:29:26.716Z,97.90
2019-04-26T10:31:58.241Z,98.30
2019-04-26T10:34:29.189Z,98.20
2019-04-26T10:37:06.034Z,98.50
2019-04-26T10:39:36.829Z,98.60
2019-04-26T10:42:06.638Z,98.90
2019-04-26T10:44:39.831Z,99.30
2019-04-26T10:47:09.958Z,99.90
2019-04-26T10:49:46.552Z,99.90
2019-04-26T10:52:31.153Z,99.90
2019-04-26T10:55:19.913Z,99.90
2019-04-26T10:57:52.095Z,99.90
2019-04-26T11:00:28.432Z,99.90
2019-04-26T11:03:04.543Z,99.90
2019-04-26T11:05:34.764Z,99.90
2019-04-26T11:08:05.775Z,99.90
2019-04-26T11:10:47.867Z,99.90
2019-04-26T11:13:12.853Z,99.90
2019-04-26T11:15:43.788Z,99.90
2019-04-26T11:18:15.063Z,99.90
2019-04-26T11:20:46.643Z,99.90
2019-04-26T11:23:17.517Z,99.90
2019-04-26T11:25:51.136Z,99.90
2019-04-26T11:28:25.142Z,99.90
2019-04-26T11:30:57.510Z,99.90
2019-04-26T11:33:28.508Z,99.90
2019-04-26T11:35:59.462Z,99.90
2019-04-26T11:38:31.209Z,99.90
2019-04-26T11:41:06.220Z,99.90
2019-04-26T11:43:35.976Z,99.90
2019-04-26T11:46:07.338Z,99.90
2019-04-26T11:48:38.149Z,99.90
2019-04-26T11:51:09.475Z,99.90
2019-04-26T11:53:40.511Z,99.90
2019-04-26T11:56:13.052Z,99.90
2019-04-26T11:58:43.957Z,99.90
2019-04-26T12:01:16.120Z,99.90
2019-04-26T12:04:07.272Z,99.90
2019-04-26T12:06:43.741Z,99.90
2019-04-26T12:09:31.254Z,99.90
2019-04-26T12:12:04.913Z,99.90
2019-04-26T12:14:34.431Z,99.90
2019-04-26T12:17:05.408Z,99.90
2019-04-26T12:19:36.030Z,99.90
2019-04-26T12:22:08.337Z,99.90
2019-04-26T12:24:41.924Z,99.90
2019-04-26T12:27:12.456Z,99.90
2019-04-26T12:29:44.233Z,99.90
2019-04-26T12:32:17.181Z,99.90
2019-04-26T12:34:50.321Z,99.90
2019-04-26T12:37:21.227Z,99.90
2019-04-26T12:39:51.696Z,99.90
2019-04-26T12:42:22.197Z,99.90
2019-04-26T12:45:12.172Z,99.90
2019-04-26T12:47:50.174Z,99.90
2019-04-26T12:50:21.252Z,99.90
2019-04-26T12:52:55.575Z,99.90
2019-04-26T12:55:25.968Z,99.90
2019-04-26T12:57:58.169Z,99.90
2019-04-26T13:00:33.044Z,99.90
2019-04-26T13:03:05.026Z,99.90
2019-04-26T13:05:35.628Z,99.90
2019-04-26T13:08:06.976Z,99.90
2019-04-26T13:10:55.172Z,99.90
2019-04-26T13:13:29.589Z,99.90
2019-04-26T13:16:07.954Z,99.90
2019-04-26T13:18:41.107Z,99.90
2019-04-26T13:21:13.095Z,99.90
2019-04-26T13:23:43.667Z,99.90
2019-04-26T13:26:14.320Z,99.90
2019-04-26T13:28:45.972Z,99.90
2019-04-26T13:31:16.458Z,99.90
2019-04-26T13:33:47.074Z,99.90
2019-04-26T13:36:18.138Z,99.90
2019-04-26T13:38:49.697Z,99.90
2019-04-26T13:41:20.283Z,99.90
2019-04-26T13:43:50.963Z,99.90
2019-04-26T13:46:43.336Z,99.90
2019-04-26T13:49:43.405Z,99.90
2019-04-26T13:52:14.139Z,99.90
2019-04-26T13:54:47.438Z,99.90
2019-04-26T13:57:18.421Z,99.90
2019-04-26T13:59:50.273Z,99.90
2019-04-26T14:02:20.740Z,99.90
2019-04-26T14:04:52.303Z,99.90
2019-04-26T14:07:24.430Z,99.90
2019-04-26T14:09:54.754Z,99.90
2019-04-26T14:12:25.148Z,99.90
2019-04-26T14:14:55.973Z,99.90
2019-04-26T14:17:29.674Z,99.90
2019-04-26T14:19:59.278Z,99.90
2019-04-26T14:22:37.024Z,99.90
2019-04-26T14:25:11.309Z,99.90
2019-04-26T14:27:49.886Z,99.90
2019-04-26T14:30:21.203Z,99.90
2019-04-26T14:32:57.238Z,99.90
2019-04-26T14:35:26.580Z,99.90
2019-04-26T14:37:57.582Z,99.90
2019-04-26T14:40:28.491Z,99.90
2019-04-26T14:43:06.455Z,99.90
2019-04-26T14:45:31.342Z,99.90
2019-04-26T14:48:04.071Z,99.90
2019-04-26T14:50:34.256Z,99.90
2019-04-26T14:53:05.969Z,99.90
2019-04-26T14:55:37.345Z,99.90
2019-04-26T14:58:07.768Z,99.90
2019-04-26T15:00:39.285Z,99.90
2019-04-26T15:03:20.930Z,99.90
2019-04-26T15:06:02.955Z,99.90
2019-04-26T15:08:34.303Z,99.90
2019-04-26T15:11:05.316Z,99.90
2019-04-26T15:13:40.400Z,99.90
2019-04-26T15:16:12.353Z,99.90
2019-04-26T15:18:43.065Z,99.90
2019-04-26T15:21:16.328Z,99.90
2019-04-26T15:23:47.209Z,99.90
2019-04-26T15:26:18.570Z,99.90
2019-04-26T15:28:51.460Z,99.90
2019-04-26T15:31:24.907Z,99.90
2019-04-26T15:33:55.072Z,99.90
2019-04-26T15:36:25.681Z,99.90
2019-04-26T15:39:03.780Z,99.90
2019-04-26T15:41:46.940Z,99.90
2019-04-26T15:44:34.316Z,99.90
2019-04-26T15:47:13.528Z,99.90
2019-04-26T15:49:57.741Z,99.90
2019-04-26T15:52:30.074Z,99.90
2019-04-26T15:55:04.201Z,99.90
2019-04-26T15:57:34.692Z,99.90
2019-04-26T16:00:06.356Z,99.90
2019-04-26T16:02:38.684Z,99.90
2019-04-26T16:05:12.303Z,99.90
2019-04-26T16:07:43.047Z,99.90
2019-04-26T16:10:14.069Z,99.90
2019-04-26T16:12:44.654Z,99.90
2019-04-26T16:15:15.309Z,99.90
2019-04-26T16:17:46.452Z,99.90
2019-04-26T16:20:17.445Z,99.90
2019-04-26T16:22:49.221Z,99.90
2019-04-26T16:25:20.031Z,99.90
2019-04-26T16:28:09.902Z,99.90
2019-04-26T16:30:49.631Z,99.90
2019-04-26T16:33:28.524Z,99.90
2019-04-26T16:35:57.552Z,99.90
2019-04-26T16:38:36.565Z,99.90
2019-04-26T16:41:07.615Z,99.90
2019-04-26T16:43:44.625Z,99.90
2019-04-26T16:46:12.567Z,99.90
2019-04-26T16:48:44.614Z,99.90
2019-04-26T16:51:15.297Z,99.90
2019-04-26T16:54:03.666Z,99.90
2019-04-26T16:56:25.943Z,99.90
2019-04-26T16:58:50.303Z,99.90
2019-04-26T17:01:23.409Z,99.90
2019-04-26T17:03:54.265Z,99.90
2019-04-26T17:06:25.255Z,99.90
2019-04-26T17:09:04.510Z,99.90
2019-04-26T17:11:35.015Z,99.90
2019-04-26T17:14:09.954Z,99.90
2019-04-26T17:16:38.406Z,99.90
2019-04-26T17:19:09.303Z,99.90
2019-04-26T17:21:46.389Z,99.90
2019-04-26T17:24:24.792Z,99.90
2019-04-26T17:27:05.326Z,99.90
2019-04-26T17:29:34.428Z,99.90
2019-04-26T17:32:09.172Z,99.90
2019-04-26T17:34:40.692Z,99.90
2019-04-26T17:37:14.747Z,99.90
2019-04-26T17:39:43.422Z,99.90
2019-04-26T17:42:14.385Z,99.90
2019-04-26T17:44:45.329Z,99.90
2019-04-26T17:47:16.764Z,99.90
2019-04-26T17:49:48.312Z,99.90
2019-04-26T17:52:20.291Z,99.90
2019-04-26T17:54:52.096Z,99.90
2019-04-26T17:57:33.694Z,99.90
2019-04-26T18:00:06.620Z,99.90
2019-04-26T18:02:41.399Z,99.90
2019-04-26T18:05:03.370Z,99.90
2019-04-26T18:07:41.434Z,99.90
2019-04-26T18:10:08.253Z,99.90
2019-04-26T18:12:41.024Z,99.90
2019-04-26T18:15:16.623Z,99.90
2019-04-26T18:18:04.134Z,99.90
2019-04-26T18:20:51.405Z,99.90
2019-04-26T18:23:23.415Z,99.90
2019-04-26T18:25:53.992Z,99.90
2019-04-26T18:28:25.111Z,99.90
2019-04-26T18:30:56.085Z,99.90
2019-04-26T18:33:27.180Z,99.90
2019-04-26T18:35:58.108Z,99.90
2019-04-26T18:38:31.735Z,99.90
2019-04-26T18:41:03.682Z,99.90
2019-04-26T18:43:34.404Z,99.90
2019-04-26T18:46:10.284Z,99.90
2019-04-26T18:48:42.536Z,99.90
2019-04-26T18:51:15.019Z,99.90
2019-04-26T18:54:04.977Z,99.90
2019-04-26T18:56:40.499Z,99.90
2019-04-26T18:59:11.745Z,99.90
2019-04-26T19:01:43.254Z,99.90
2019-04-26T19:04:15.543Z,99.90
2019-04-26T19:06:46.216Z,99.90
2019-04-26T19:09:18.764Z,99.90
2019-04-26T19:11:49.947Z,99.90
2019-04-26T19:14:48.533Z,99.90
2019-04-26T19:17:33.918Z,99.90
2019-04-26T19:20:24.329Z,99.90
2019-04-26T19:23:07.504Z,99.90
2019-04-26T19:25:40.834Z,99.90
2019-04-26T19:28:12.145Z,99.90
2019-04-26T19:30:49.374Z,99.90
2019-04-26T19:33:18.499Z,99.90
2019-04-26T19:35:50.351Z,99.90
2019-04-26T19:38:21.789Z,99.90
2019-04-26T19:40:52.845Z,99.90
2019-04-26T19:43:32.444Z,99.90
2019-04-26T19:46:21.700Z,99.90
2019-04-26T19:49:25.930Z,99.90
2019-04-26T19:52:14.939Z,99.90
2019-04-26T19:54:51.231Z,99.90
2019-04-26T19:57:25.671Z,99.90
2019-04-26T19:59:56.654Z,99.90
2019-04-26T20:02:36.229Z,99.90
2019-04-26T20:05:02.390Z,99.90
2019-04-26T20:07:34.036Z,99.90
2019-04-26T20:10:05.410Z,99.90
2019-04-26T20:12:38.125Z,99.90
2019-04-26T20:15:09.198Z,99.90
2019-04-26T20:17:39.753Z,99.90
2019-04-26T20:20:20.878Z,99.90
2019-04-26T20:22:44.895Z,99.90
2019-04-26T20:25:15.497Z,99.90
2019-04-26T20:27:46.150Z,99.90
2019-04-26T20:30:27.789Z,99.90
2019-04-26T20:33:01.648Z,99.90
2019-04-26T20:35:31.989Z,99.90
2019-04-26T20:38:04.900Z,99.90
2019-04-26T20:40:36.034Z,99.90
2019-04-26T20:43:08.283Z,99.90
2019-04-26T20:45:42.040Z,99.90
2019-04-26T20:48:11.469Z,99.90
2019-04-26T20:50:42.007Z,99.90
2019-04-26T20:53:12.600Z,99.90
2019-04-26T20:55:43.633Z,99.90
2019-04-26T20:58:14.158Z,99.90
2019-04-26T21:00:54.253Z,99.90
2019-04-26T21:03:24.754Z,99.90
2019-04-26T21:05:59.296Z,99.90
2019-04-26T21:08:26.881Z,99.90
2019-04-26T21:11:00.132Z,99.90
2019-04-26T21:13:33.088Z,99.90
2019-04-26T21:16:10.663Z,99.90
2019-04-26T21:18:40.047Z,99.90
2019-04-26T21:21:10.460Z,99.90
2019-04-26T21:23:42.224Z,99.90
2019-04-26T21:26:32.193Z,99.90
2019-04-26T21:29:20.305Z,99.90
2019-04-26T21:32:19.821Z,99.90
2019-04-26T21:34:50.770Z,99.90
2019-04-26T21:37:40.694Z,99.90
2019-04-26T21:40:30.282Z,99.90
2019-04-26T21:43:03.112Z,99.90
2019-04-26T21:45:34.739Z,99.90
2019-04-26T21:48:06.893Z,99.90
2019-04-26T21:50:39.193Z,99.90
2019-04-26T21:53:17.120Z,99.90
2019-04-26T21:55:47.969Z,99.90
2019-04-26T21:58:18.595Z,99.90
2019-04-26T22:01:17.427Z,99.90
2019-04-26T22:03:53.549Z,99.90
2019-04-26T22:06:25.050Z,99.90
2019-04-26T22:09:01.096Z,99.90
2019-04-26T22:11:32.549Z,99.90
2019-04-26T22:14:08.790Z,99.90
2019-04-26T22:17:02.216Z,99.90
2019-04-26T22:19:53.393Z,99.90
2019-04-26T22:22:42.883Z,99.90
2019-04-26T22:25:14.025Z,99.90
2019-04-26T22:27:45.398Z,99.90
2019-04-26T22:30:22.734Z,99.90
2019-04-26T22:32:58.126Z,99.90
2019-04-26T22:35:25.541Z,99.90
2019-04-26T22:37:56.190Z,99.90
2019-04-26T22:40:26.705Z,99.90
2019-04-26T22:43:06.282Z,99.90
2019-04-26T22:45:47.826Z,99.90
2019-04-26T22:48:25.700Z,99.90
2019-04-26T22:50:58.504Z,99.90
2019-04-26T22:53:29.229Z,99.90
2019-04-26T22:56:01.396Z,99.90
2019-04-26T22:58:33.749Z,99.90
2019-04-26T23:01:06.222Z,99.90
2019-04-26T23:03:41.238Z,99.90
2019-04-26T23:06:11.621Z,99.90
2019-04-26T23:08:43.726Z,99.90
2019-04-26T23:11:14.509Z,99.90
2019-04-26T23:13:59.590Z,99.90
2019-04-26T23:17:04.057Z,99.90
2019-04-26T23:19:43.659Z,99.90
2019-04-26T23:22:14.273Z,99.90
2019-04-26T23:24:45.001Z,99.90
2019-04-26T23:27:20.423Z,99.90
2019-04-26T23:29:49.815Z,99.90
2019-04-26T23:32:20.215Z,99.90
2019-04-26T23:34:51.057Z,99.90
2019-04-26T23:37:25.873Z,99.90
2019-04-26T23:39:54.749Z,99.90
2019-04-26T23:42:25.391Z,99.90
2019-04-26T23:44:57.452Z,99.90
2019-04-26T23:47:32.003Z,99.90
2019-04-26T23:50:00.457Z,99.90
2019-04-26T23:52:30.942Z,99.90
2019-04-26T23:55:05.544Z,99.90
2019-04-26T23:57:36.024Z,99.90
